sensor_id;sensor_type;location;lat;lon;timestamp;temperature;humidity
49765;DHT22;35657;51.204;-4.130;2022-09-13T00:00:14;19.40;99.90
49765;DHT22;35657;51.204;-4.130;2022-09-13T00:02:40;19.30;99.90
49765;DHT22;35657;51.204;-4.130;2022-09-13T00:05:06;19.30;99.90
49765;DHT22;35657;51.204;-4.130;2022-09-13T00:07:32;19.30;99.90
49765;DHT22;35657;51.204;-4.130;2022-09-13T00:09:58;19.30;99.90
49765;DHT22;35657;51.204;-4.130;2022-09-13T00:12:23;19.40;99.90
49765;DHT22;35657;51.204;-4.130;2022-09-13T00:14:49;19.50;99.90
49765;DHT22;35657;51.204;-4.130;2022-09-13T00:17:15;19.60;99.90
49765;DHT22;35657;51.204;-4.130;2022-09-13T00:19:41;19.50;99.90
49765;DHT22;35657;51.204;-4.130;2022-09-13T00:22:07;19.40;99.90
49765;DHT22;35657;51.204;-4.130;2022-09-13T00:24:33;19.40;99.90
49765;DHT22;35657;51.204;-4.130;2022-09-13T00:26:59;19.40;99.90
49765;DHT22;35657;51.204;-4.130;2022-09-13T00:29:26;19.40;99.90
49765;DHT22;35657;51.204;-4.130;2022-09-13T00:31:52;19.40;99.90
49765;DHT22;35657;51.204;-4.130;2022-09-13T00:34:18;19.30;99.90
49765;DHT22;35657;51.204;-4.130;2022-09-13T00:36:43;19.30;99.90
49765;DHT22;35657;51.204;-4.130;2022-09-13T00:39:10;19.30;99.90
49765;DHT22;35657;51.204;-4.130;2022-09-13T00:41:36;19.30;99.90
49765;DHT22;35657;51.204;-4.130;2022-09-13T00:44:03;19.40;99.90
49765;DHT22;35657;51.204;-4.130;2022-09-13T00:46:42;19.40;99.90
49765;DHT22;35657;51.204;-4.130;2022-09-13T00:49:21;19.40;99.90
49765;DHT22;35657;51.204;-4.130;2022-09-13T00:51:55;19.30;99.90
49765;DHT22;35657;51.204;-4.130;2022-09-13T00:54:26;19.30;99.90
49765;DHT22;35657;51.204;-4.130;2022-09-13T00:56:56;19.30;99.90
49765;DHT22;35657;51.204;-4.130;2022-09-13T00:59:34;19.30;99.90
49765;DHT22;35657;51.204;-4.130;2022-09-13T01:02:02;19.30;99.90
49765;DHT22;35657;51.204;-4.130;2022-09-13T01:04:29;19.30;99.90
49765;DHT22;35657;51.204;-4.130;2022-09-13T01:07:00;19.30;99.90
49765;DHT22;35657;51.204;-4.130;2022-09-13T01:09:27;19.30;99.90
49765;DHT22;35657;51.204;-4.130;2022-09-13T01:12:01;19.30;99.90
49765;DHT22;35657;51.204;-4.130;2022-09-13T01:14:29;19.30;99.90
49765;DHT22;35657;51.204;-4.130;2022-09-13T01:16:55;19.40;99.90
49765;DHT22;35657;51.204;-4.130;2022-09-13T01:19:21;19.40;99.90
49765;DHT22;35657;51.204;-4.130;2022-09-13T01:30:11;19.40;99.90
49765;DHT22;35657;51.204;-4.130;2022-09-13T01:35:29;19.30;99.90
49765;DHT22;35657;51.204;-4.130;2022-09-13T01:43:55;19.30;99.90
49765;DHT22;35657;51.204;-4.130;2022-09-13T01:49:01;19.30;99.90
49765;DHT22;35657;51.204;-4.130;2022-09-13T01:51:32;19.30;99.90
49765;DHT22;35657;51.204;-4.130;2022-09-13T01:54:19;19.30;99.90
49765;DHT22;35657;51.204;-4.130;2022-09-13T01:56:57;19.30;99.90
49765;DHT22;35657;51.204;-4.130;2022-09-13T02:04:41;19.30;99.90
49765;DHT22;35657;51.204;-4.130;2022-09-13T02:07:52;19.30;99.90
49765;DHT22;35657;51.204;-4.130;2022-09-13T02:10:24;19.20;99.90
49765;DHT22;35657;51.204;-4.130;2022-09-13T02:12:52;19.30;99.90
49765;DHT22;35657;51.204;-4.130;2022-09-13T02:15:40;19.30;99.90
49765;DHT22;35657;51.204;-4.130;2022-09-13T02:18:11;19.30;99.90
49765;DHT22;35657;51.204;-4.130;2022-09-13T02:20:43;19.20;99.90
49765;DHT22;35657;51.204;-4.130;2022-09-13T02:23:14;19.30;99.90
49765;DHT22;35657;51.204;-4.130;2022-09-13T02:25:42;19.30;99.90
49765;DHT22;35657;51.204;-4.130;2022-09-13T02:28:22;19.30;99.90
49765;DHT22;35657;51.204;-4.130;2022-09-13T02:30:52;19.30;99.90
49765;DHT22;35657;51.204;-4.130;2022-09-13T02:33:43;19.30;99.90
49765;DHT22;35657;51.204;-4.130;2022-09-13T02:36:23;19.30;99.90
49765;DHT22;35657;51.204;-4.130;2022-09-13T02:39:01;19.30;99.90
49765;DHT22;35657;51.204;-4.130;2022-09-13T02:41:55;19.30;99.90
49765;DHT22;35657;51.204;-4.130;2022-09-13T02:44:43;19.30;99.90
49765;DHT22;35657;51.204;-4.130;2022-09-13T02:55:51;19.30;99.90
49765;DHT22;35657;51.204;-4.130;2022-09-13T03:00:59;19.20;99.90
49765;DHT22;35657;51.204;-4.130;2022-09-13T03:03:25;19.20;99.90
49765;DHT22;35657;51.204;-4.130;2022-09-13T03:05:52;19.20;99.90
49765;DHT22;35657;51.204;-4.130;2022-09-13T03:08:18;19.20;99.90
49765;DHT22;35657;51.204;-4.130;2022-09-13T03:10:58;19.10;99.90
49765;DHT22;35657;51.204;-4.130;2022-09-13T03:19:39;19.10;99.90
49765;DHT22;35657;51.204;-4.130;2022-09-13T03:30:00;19.10;99.90
49765;DHT22;35657;51.204;-4.130;2022-09-13T03:35:16;19.20;99.90
49765;DHT22;35657;51.204;-4.130;2022-09-13T03:40:20;19.10;99.90
49765;DHT22;35657;51.204;-4.130;2022-09-13T03:43:13;19.10;99.90
49765;DHT22;35657;51.204;-4.130;2022-09-13T03:45:45;19.10;99.90
49765;DHT22;35657;51.204;-4.130;2022-09-13T03:48:13;19.00;99.90
49765;DHT22;35657;51.204;-4.130;2022-09-13T03:50:39;19.00;99.90
49765;DHT22;35657;51.204;-4.130;2022-09-13T03:53:09;18.90;99.90
49765;DHT22;35657;51.204;-4.130;2022-09-13T03:55:39;18.90;99.90
49765;DHT22;35657;51.204;-4.130;2022-09-13T03:58:08;18.90;99.90
49765;DHT22;35657;51.204;-4.130;2022-09-13T04:00:34;18.80;99.90
49765;DHT22;35657;51.204;-4.130;2022-09-13T04:03:00;18.80;99.90
49765;DHT22;35657;51.204;-4.130;2022-09-13T04:05:26;18.70;99.90
49765;DHT22;35657;51.204;-4.130;2022-09-13T04:07:51;18.70;99.90
49765;DHT22;35657;51.204;-4.130;2022-09-13T04:10:17;18.70;99.90
49765;DHT22;35657;51.204;-4.130;2022-09-13T04:12:43;18.70;99.90
49765;DHT22;35657;51.204;-4.130;2022-09-13T04:15:09;18.70;99.90
49765;DHT22;35657;51.204;-4.130;2022-09-13T04:17:34;18.60;99.90
49765;DHT22;35657;51.204;-4.130;2022-09-13T04:20:00;18.60;99.90
49765;DHT22;35657;51.204;-4.130;2022-09-13T04:22:26;18.60;99.90
49765;DHT22;35657;51.204;-4.130;2022-09-13T04:24:52;18.60;99.90
49765;DHT22;35657;51.204;-4.130;2022-09-13T04:27:18;18.60;99.90
49765;DHT22;35657;51.204;-4.130;2022-09-13T04:29:43;18.50;99.90
49765;DHT22;35657;51.204;-4.130;2022-09-13T04:32:09;18.50;99.90
49765;DHT22;35657;51.204;-4.130;2022-09-13T04:34:35;18.50;99.90
49765;DHT22;35657;51.204;-4.130;2022-09-13T04:37:01;18.50;99.90
49765;DHT22;35657;51.204;-4.130;2022-09-13T04:39:27;18.40;99.90
49765;DHT22;35657;51.204;-4.130;2022-09-13T04:41:52;18.40;99.90
49765;DHT22;35657;51.204;-4.130;2022-09-13T04:44:19;18.40;99.90
49765;DHT22;35657;51.204;-4.130;2022-09-13T04:46:46;18.30;99.90
49765;DHT22;35657;51.204;-4.130;2022-09-13T04:49:13;18.30;99.90
49765;DHT22;35657;51.204;-4.130;2022-09-13T04:51:39;18.30;99.90
49765;DHT22;35657;51.204;-4.130;2022-09-13T04:54:05;18.30;99.90
49765;DHT22;35657;51.204;-4.130;2022-09-13T04:56:31;18.20;99.90
49765;DHT22;35657;51.204;-4.130;2022-09-13T04:58:57;18.20;99.90
49765;DHT22;35657;51.204;-4.130;2022-09-13T05:01:23;18.20;99.90
49765;DHT22;35657;51.204;-4.130;2022-09-13T05:03:50;18.20;99.90
49765;DHT22;35657;51.204;-4.130;2022-09-13T05:06:18;18.20;99.90
49765;DHT22;35657;51.204;-4.130;2022-09-13T05:08:44;18.20;99.90
49765;DHT22;35657;51.204;-4.130;2022-09-13T05:11:13;18.10;99.90
49765;DHT22;35657;51.204;-4.130;2022-09-13T05:13:39;18.20;99.90
49765;DHT22;35657;51.204;-4.130;2022-09-13T05:16:06;18.20;99.90
49765;DHT22;35657;51.204;-4.130;2022-09-13T05:18:35;18.10;99.90
49765;DHT22;35657;51.204;-4.130;2022-09-13T05:21:03;18.10;99.90
49765;DHT22;35657;51.204;-4.130;2022-09-13T05:23:30;18.10;99.90
49765;DHT22;35657;51.204;-4.130;2022-09-13T05:26:01;18.00;99.90
49765;DHT22;35657;51.204;-4.130;2022-09-13T05:28:28;18.10;99.90
49765;DHT22;35657;51.204;-4.130;2022-09-13T05:31:03;18.10;99.90
49765;DHT22;35657;51.204;-4.130;2022-09-13T05:33:31;18.00;99.90
49765;DHT22;35657;51.204;-4.130;2022-09-13T05:35:57;18.00;99.90
49765;DHT22;35657;51.204;-4.130;2022-09-13T05:38:23;18.00;99.90
49765;DHT22;35657;51.204;-4.130;2022-09-13T05:40:53;18.00;99.90
49765;DHT22;35657;51.204;-4.130;2022-09-13T05:43:25;18.00;99.90
49765;DHT22;35657;51.204;-4.130;2022-09-13T05:46:06;18.00;99.90
49765;DHT22;35657;51.204;-4.130;2022-09-13T05:48:33;18.00;99.90
49765;DHT22;35657;51.204;-4.130;2022-09-13T05:51:12;18.00;99.90
49765;DHT22;35657;51.204;-4.130;2022-09-13T05:53:40;18.00;99.90
49765;DHT22;35657;51.204;-4.130;2022-09-13T05:56:12;18.10;99.90
49765;DHT22;35657;51.204;-4.130;2022-09-13T05:58:42;18.20;99.90
49765;DHT22;35657;51.204;-4.130;2022-09-13T06:01:09;18.20;99.90
49765;DHT22;35657;51.204;-4.130;2022-09-13T06:03:35;18.20;99.90
49765;DHT22;35657;51.204;-4.130;2022-09-13T06:06:02;18.10;99.90
49765;DHT22;35657;51.204;-4.130;2022-09-13T06:08:30;18.10;99.90
49765;DHT22;35657;51.204;-4.130;2022-09-13T06:11:04;18.10;99.90
49765;DHT22;35657;51.204;-4.130;2022-09-13T06:13:30;18.10;99.90
49765;DHT22;35657;51.204;-4.130;2022-09-13T06:15:58;18.00;99.90
49765;DHT22;35657;51.204;-4.130;2022-09-13T06:18:24;17.90;99.90
49765;DHT22;35657;51.204;-4.130;2022-09-13T06:20:50;17.90;99.90
49765;DHT22;35657;51.204;-4.130;2022-09-13T06:23:21;17.90;99.90
49765;DHT22;35657;51.204;-4.130;2022-09-13T06:25:47;17.90;99.90
49765;DHT22;35657;51.204;-4.130;2022-09-13T06:28:13;17.90;99.90
49765;DHT22;35657;51.204;-4.130;2022-09-13T06:30:38;17.80;99.90
49765;DHT22;35657;51.204;-4.130;2022-09-13T06:33:04;17.80;99.90
49765;DHT22;35657;51.204;-4.130;2022-09-13T06:35:30;17.80;99.90
49765;DHT22;35657;51.204;-4.130;2022-09-13T06:37:56;17.80;99.90
49765;DHT22;35657;51.204;-4.130;2022-09-13T06:40:23;17.80;99.90
49765;DHT22;35657;51.204;-4.130;2022-09-13T06:42:49;17.80;99.90
49765;DHT22;35657;51.204;-4.130;2022-09-13T06:45:15;17.70;99.90
49765;DHT22;35657;51.204;-4.130;2022-09-13T06:47:41;17.70;99.90
49765;DHT22;35657;51.204;-4.130;2022-09-13T06:50:07;17.70;99.90
49765;DHT22;35657;51.204;-4.130;2022-09-13T06:52:34;17.70;99.90
49765;DHT22;35657;51.204;-4.130;2022-09-13T06:54:59;17.80;99.90
49765;DHT22;35657;51.204;-4.130;2022-09-13T06:57:25;17.80;99.90
49765;DHT22;35657;51.204;-4.130;2022-09-13T06:59:54;17.70;99.90
49765;DHT22;35657;51.204;-4.130;2022-09-13T07:02:20;17.70;99.90
49765;DHT22;35657;51.204;-4.130;2022-09-13T07:04:45;17.70;99.90
49765;DHT22;35657;51.204;-4.130;2022-09-13T07:07:11;17.80;99.90
49765;DHT22;35657;51.204;-4.130;2022-09-13T07:09:37;17.70;99.90
49765;DHT22;35657;51.204;-4.130;2022-09-13T07:12:04;17.70;99.90
49765;DHT22;35657;51.204;-4.130;2022-09-13T07:14:31;17.70;99.90
49765;DHT22;35657;51.204;-4.130;2022-09-13T07:16:57;17.70;99.90
49765;DHT22;35657;51.204;-4.130;2022-09-13T07:19:24;17.70;99.90
49765;DHT22;35657;51.204;-4.130;2022-09-13T07:21:51;17.70;99.90
49765;DHT22;35657;51.204;-4.130;2022-09-13T07:24:18;17.70;99.90
49765;DHT22;35657;51.204;-4.130;2022-09-13T07:26:45;17.70;99.90
49765;DHT22;35657;51.204;-4.130;2022-09-13T07:29:16;17.70;99.90
49765;DHT22;35657;51.204;-4.130;2022-09-13T07:31:45;17.70;99.90
49765;DHT22;35657;51.204;-4.130;2022-09-13T07:34:16;17.60;99.90
49765;DHT22;35657;51.204;-4.130;2022-09-13T07:36:43;17.60;99.90
49765;DHT22;35657;51.204;-4.130;2022-09-13T07:39:12;17.60;99.90
49765;DHT22;35657;51.204;-4.130;2022-09-13T07:41:38;17.70;99.90
49765;DHT22;35657;51.204;-4.130;2022-09-13T07:44:04;17.70;99.90
49765;DHT22;35657;51.204;-4.130;2022-09-13T07:46:34;17.70;99.90
49765;DHT22;35657;51.204;-4.130;2022-09-13T07:49:06;17.70;99.90
49765;DHT22;35657;51.204;-4.130;2022-09-13T07:51:34;17.60;99.90
49765;DHT22;35657;51.204;-4.130;2022-09-13T07:54:02;17.50;99.90
49765;DHT22;35657;51.204;-4.130;2022-09-13T07:56:30;17.60;99.90
49765;DHT22;35657;51.204;-4.130;2022-09-13T07:58:59;17.50;99.90
49765;DHT22;35657;51.204;-4.130;2022-09-13T08:03:59;17.50;99.90
49765;DHT22;35657;51.204;-4.130;2022-09-13T08:06:26;17.50;99.90
49765;DHT22;35657;51.204;-4.130;2022-09-13T08:08:53;17.50;99.90
49765;DHT22;35657;51.204;-4.130;2022-09-13T08:11:40;17.40;99.90
49765;DHT22;35657;51.204;-4.130;2022-09-13T08:14:08;17.40;99.90
49765;DHT22;35657;51.204;-4.130;2022-09-13T08:16:35;17.40;99.90
49765;DHT22;35657;51.204;-4.130;2022-09-13T08:19:03;17.40;99.90
49765;DHT22;35657;51.204;-4.130;2022-09-13T08:21:39;17.40;99.90
49765;DHT22;35657;51.204;-4.130;2022-09-13T08:24:07;17.50;99.90
49765;DHT22;35657;51.204;-4.130;2022-09-13T08:26:34;17.50;99.90
49765;DHT22;35657;51.204;-4.130;2022-09-13T08:29:02;17.40;99.90
49765;DHT22;35657;51.204;-4.130;2022-09-13T08:31:29;17.40;99.90
49765;DHT22;35657;51.204;-4.130;2022-09-13T08:33:55;17.40;99.90
49765;DHT22;35657;51.204;-4.130;2022-09-13T08:36:23;17.30;99.90
49765;DHT22;35657;51.204;-4.130;2022-09-13T08:38:54;17.30;99.90
49765;DHT22;35657;51.204;-4.130;2022-09-13T08:46:57;17.50;99.90
49765;DHT22;35657;51.204;-4.130;2022-09-13T08:49:33;17.50;99.90
49765;DHT22;35657;51.204;-4.130;2022-09-13T08:54:41;17.60;99.90
49765;DHT22;35657;51.204;-4.130;2022-09-13T09:05:19;17.40;99.90
49765;DHT22;35657;51.204;-4.130;2022-09-13T09:07:56;17.20;99.90
49765;DHT22;35657;51.204;-4.130;2022-09-13T09:10:32;17.30;99.90
49765;DHT22;35657;51.204;-4.130;2022-09-13T09:13:12;17.30;99.90
49765;DHT22;35657;51.204;-4.130;2022-09-13T09:15:46;17.30;99.90
49765;DHT22;35657;51.204;-4.130;2022-09-13T09:18:26;17.30;99.90
49765;DHT22;35657;51.204;-4.130;2022-09-13T09:20:55;17.30;99.90
49765;DHT22;35657;51.204;-4.130;2022-09-13T09:23:51;17.20;99.90
49765;DHT22;35657;51.204;-4.130;2022-09-13T09:26:21;17.40;99.90
49765;DHT22;35657;51.204;-4.130;2022-09-13T09:28:57;17.40;99.90
49765;DHT22;35657;51.204;-4.130;2022-09-13T09:39:41;17.20;99.90
49765;DHT22;35657;51.204;-4.130;2022-09-13T09:42:22;17.10;99.90
49765;DHT22;35657;51.204;-4.130;2022-09-13T09:44:55;17.10;99.90
49765;DHT22;35657;51.204;-4.130;2022-09-13T09:47:24;17.00;99.90
49765;DHT22;35657;51.204;-4.130;2022-09-13T09:50:00;17.00;99.90
49765;DHT22;35657;51.204;-4.130;2022-09-13T09:55:26;17.00;99.90
49765;DHT22;35657;51.204;-4.130;2022-09-13T10:00:29;16.90;99.90
49765;DHT22;35657;51.204;-4.130;2022-09-13T10:03:06;16.90;99.90
49765;DHT22;35657;51.204;-4.130;2022-09-13T10:05:34;16.90;99.90
49765;DHT22;35657;51.204;-4.130;2022-09-13T10:08:02;16.90;99.90
49765;DHT22;35657;51.204;-4.130;2022-09-13T10:10:42;16.90;99.90
49765;DHT22;35657;51.204;-4.130;2022-09-13T10:13:20;17.00;99.90
49765;DHT22;35657;51.204;-4.130;2022-09-13T10:15:58;17.10;99.90
49765;DHT22;35657;51.204;-4.130;2022-09-13T10:18:29;17.10;99.90
49765;DHT22;35657;51.204;-4.130;2022-09-13T10:21:22;17.00;99.90
49765;DHT22;35657;51.204;-4.130;2022-09-13T10:23:48;17.10;99.90
49765;DHT22;35657;51.204;-4.130;2022-09-13T10:29:06;17.10;99.90
49765;DHT22;35657;51.204;-4.130;2022-09-13T10:31:36;17.20;99.90
49765;DHT22;35657;51.204;-4.130;2022-09-13T10:36:35;17.10;99.90
49765;DHT22;35657;51.204;-4.130;2022-09-13T10:39:10;17.10;99.90
49765;DHT22;35657;51.204;-4.130;2022-09-13T10:41:40;17.10;99.90
49765;DHT22;35657;51.204;-4.130;2022-09-13T10:44:35;17.10;99.90
49765;DHT22;35657;51.204;-4.130;2022-09-13T10:47:07;17.20;99.90
49765;DHT22;35657;51.204;-4.130;2022-09-13T10:49:43;17.10;99.90
49765;DHT22;35657;51.204;-4.130;2022-09-13T10:52:33;17.10;99.90
49765;DHT22;35657;51.204;-4.130;2022-09-13T11:00:12;17.30;99.90
49765;DHT22;35657;51.204;-4.130;2022-09-13T11:08:15;17.30;99.90
49765;DHT22;35657;51.204;-4.130;2022-09-13T11:14:04;17.10;99.90
49765;DHT22;35657;51.204;-4.130;2022-09-13T11:16:57;17.00;99.90
49765;DHT22;35657;51.204;-4.130;2022-09-13T11:22:50;17.00;99.90
49765;DHT22;35657;51.204;-4.130;2022-09-13T11:30:46;17.10;99.90
49765;DHT22;35657;51.204;-4.130;2022-09-13T11:39:42;17.30;99.90
49765;DHT22;35657;51.204;-4.130;2022-09-13T11:44:58;17.20;99.90
49765;DHT22;35657;51.204;-4.130;2022-09-13T11:47:40;17.30;99.90
49765;DHT22;35657;51.204;-4.130;2022-09-13T11:55:32;17.20;99.90
49765;DHT22;35657;51.204;-4.130;2022-09-13T11:58:15;17.30;99.90
49765;DHT22;35657;51.204;-4.130;2022-09-13T12:01:00;17.40;99.90
49765;DHT22;35657;51.204;-4.130;2022-09-13T12:08:47;17.50;99.90
49765;DHT22;35657;51.204;-4.130;2022-09-13T12:11:25;17.50;99.90
49765;DHT22;35657;51.204;-4.130;2022-09-13T12:13:56;17.50;99.90
49765;DHT22;35657;51.204;-4.130;2022-09-13T12:16:27;17.40;99.90
49765;DHT22;35657;51.204;-4.130;2022-09-13T12:18:58;17.50;99.90
49765;DHT22;35657;51.204;-4.130;2022-09-13T12:21:29;17.50;99.90
49765;DHT22;35657;51.204;-4.130;2022-09-13T12:24:01;17.40;99.90
49765;DHT22;35657;51.204;-4.130;2022-09-13T12:26:47;17.20;99.90
49765;DHT22;35657;51.204;-4.130;2022-09-13T12:29:30;17.10;99.90
49765;DHT22;35657;51.204;-4.130;2022-09-13T12:32:03;17.10;99.90
49765;DHT22;35657;51.204;-4.130;2022-09-13T12:40:49;17.00;99.90
49765;DHT22;35657;51.204;-4.130;2022-09-13T12:46:00;16.90;99.90
49765;DHT22;35657;51.204;-4.130;2022-09-13T12:56:40;16.90;99.90
49765;DHT22;35657;51.204;-4.130;2022-09-13T13:01:47;16.90;99.90
49765;DHT22;35657;51.204;-4.130;2022-09-13T13:04:15;17.00;99.90
49765;DHT22;35657;51.204;-4.130;2022-09-13T13:07:04;16.90;99.90
49765;DHT22;35657;51.204;-4.130;2022-09-13T13:09:43;16.90;99.90
49765;DHT22;35657;51.204;-4.130;2022-09-13T13:12:36;16.90;99.90
49765;DHT22;35657;51.204;-4.130;2022-09-13T13:15:05;16.90;99.90
49765;DHT22;35657;51.204;-4.130;2022-09-13T13:23:37;17.00;99.90
49765;DHT22;35657;51.204;-4.130;2022-09-13T13:29:20;17.00;99.90
49765;DHT22;35657;51.204;-4.130;2022-09-13T13:34:27;17.00;99.90
49765;DHT22;35657;51.204;-4.130;2022-09-13T13:39:36;17.00;99.90
49765;DHT22;35657;51.204;-4.130;2022-09-13T13:42:24;17.00;99.90
49765;DHT22;35657;51.204;-4.130;2022-09-13T13:49:51;17.10;99.90
49765;DHT22;35657;51.204;-4.130;2022-09-13T13:54:58;17.10;99.90
49765;DHT22;35657;51.204;-4.130;2022-09-13T13:58:09;17.10;99.90
49765;DHT22;35657;51.204;-4.130;2022-09-13T14:00:28;17.10;99.90
49765;DHT22;35657;51.204;-4.130;2022-09-13T14:19:28;17.20;99.90
49765;DHT22;35657;51.204;-4.130;2022-09-13T14:24:38;17.10;99.90
49765;DHT22;35657;51.204;-4.130;2022-09-13T14:27:04;17.10;99.90
49765;DHT22;35657;51.204;-4.130;2022-09-13T14:29:30;17.10;99.90
49765;DHT22;35657;51.204;-4.130;2022-09-13T14:32:06;17.10;99.90
49765;DHT22;35657;51.204;-4.130;2022-09-13T14:34:36;17.10;99.90
49765;DHT22;35657;51.204;-4.130;2022-09-13T14:37:16;17.10;99.90
49765;DHT22;35657;51.204;-4.130;2022-09-13T14:40:01;17.10;99.90
49765;DHT22;35657;51.204;-4.130;2022-09-13T14:42:43;17.10;99.90
49765;DHT22;35657;51.204;-4.130;2022-09-13T14:47:55;17.10;99.90
49765;DHT22;35657;51.204;-4.130;2022-09-13T14:50:26;17.10;99.90
49765;DHT22;35657;51.204;-4.130;2022-09-13T14:53:00;17.10;99.90
49765;DHT22;35657;51.204;-4.130;2022-09-13T14:55:37;17.10;99.90
49765;DHT22;35657;51.204;-4.130;2022-09-13T14:58:15;17.10;99.90
49765;DHT22;35657;51.204;-4.130;2022-09-13T15:03:22;17.10;99.90
49765;DHT22;35657;51.204;-4.130;2022-09-13T15:05:54;17.00;99.90
49765;DHT22;35657;51.204;-4.130;2022-09-13T15:11:01;17.00;99.90
49765;DHT22;35657;51.204;-4.130;2022-09-13T15:13:28;17.00;99.90
49765;DHT22;35657;51.204;-4.130;2022-09-13T15:15:54;16.90;99.90
49765;DHT22;35657;51.204;-4.130;2022-09-13T15:20:58;16.90;99.90
49765;DHT22;35657;51.204;-4.130;2022-09-13T15:31:18;16.90;99.90
49765;DHT22;35657;51.204;-4.130;2022-09-13T15:33:44;16.90;99.90
49765;DHT22;35657;51.204;-4.130;2022-09-13T15:39:03;16.90;99.90
49765;DHT22;35657;51.204;-4.130;2022-09-13T15:41:39;16.80;99.90
49765;DHT22;35657;51.204;-4.130;2022-09-13T15:44:07;16.90;99.90
49765;DHT22;35657;51.204;-4.130;2022-09-13T15:46:44;16.80;99.90
49765;DHT22;35657;51.204;-4.130;2022-09-13T15:49:15;16.70;99.90
49765;DHT22;35657;51.204;-4.130;2022-09-13T15:51:42;16.80;99.90
49765;DHT22;35657;51.204;-4.130;2022-09-13T15:54:11;16.80;99.90
49765;DHT22;35657;51.204;-4.130;2022-09-13T15:56:41;16.80;99.90
49765;DHT22;35657;51.204;-4.130;2022-09-13T15:59:11;16.80;99.90
49765;DHT22;35657;51.204;-4.130;2022-09-13T16:01:37;16.70;99.90
49765;DHT22;35657;51.204;-4.130;2022-09-13T16:04:03;16.80;99.90
49765;DHT22;35657;51.204;-4.130;2022-09-13T16:06:29;16.70;99.90
49765;DHT22;35657;51.204;-4.130;2022-09-13T16:08:55;16.70;99.90
49765;DHT22;35657;51.204;-4.130;2022-09-13T16:11:21;16.70;99.90
49765;DHT22;35657;51.204;-4.130;2022-09-13T16:13:46;16.70;99.90
49765;DHT22;35657;51.204;-4.130;2022-09-13T16:16:15;16.70;99.90
49765;DHT22;35657;51.204;-4.130;2022-09-13T16:18:41;16.60;99.90
49765;DHT22;35657;51.204;-4.130;2022-09-13T16:21:06;16.60;99.90
49765;DHT22;35657;51.204;-4.130;2022-09-13T16:23:32;16.60;99.90
49765;DHT22;35657;51.204;-4.130;2022-09-13T16:25:59;16.60;99.90
49765;DHT22;35657;51.204;-4.130;2022-09-13T16:28:25;16.60;99.90
49765;DHT22;35657;51.204;-4.130;2022-09-13T16:30:52;16.70;99.90
49765;DHT22;35657;51.204;-4.130;2022-09-13T16:33:18;16.70;99.90
49765;DHT22;35657;51.204;-4.130;2022-09-13T16:35:44;16.60;99.90
49765;DHT22;35657;51.204;-4.130;2022-09-13T16:38:10;16.70;99.90
49765;DHT22;35657;51.204;-4.130;2022-09-13T16:40:43;16.70;99.90
49765;DHT22;35657;51.204;-4.130;2022-09-13T16:43:09;16.70;99.90
49765;DHT22;35657;51.204;-4.130;2022-09-13T16:45:39;16.80;99.90
49765;DHT22;35657;51.204;-4.130;2022-09-13T16:48:06;16.80;99.90
49765;DHT22;35657;51.204;-4.130;2022-09-13T16:50:33;16.70;99.90
49765;DHT22;35657;51.204;-4.130;2022-09-13T16:52:58;16.60;99.90
49765;DHT22;35657;51.204;-4.130;2022-09-13T16:55:24;16.60;99.90
49765;DHT22;35657;51.204;-4.130;2022-09-13T16:57:51;16.60;99.90
49765;DHT22;35657;51.204;-4.130;2022-09-13T17:00:17;16.60;99.90
49765;DHT22;35657;51.204;-4.130;2022-09-13T17:02:45;16.60;99.90
49765;DHT22;35657;51.204;-4.130;2022-09-13T17:05:12;16.50;99.90
49765;DHT22;35657;51.204;-4.130;2022-09-13T17:07:38;16.60;99.90
49765;DHT22;35657;51.204;-4.130;2022-09-13T17:10:05;16.60;99.90
49765;DHT22;35657;51.204;-4.130;2022-09-13T17:12:31;16.50;99.90
49765;DHT22;35657;51.204;-4.130;2022-09-13T17:14:57;16.60;99.90
49765;DHT22;35657;51.204;-4.130;2022-09-13T17:17:23;16.50;99.90
49765;DHT22;35657;51.204;-4.130;2022-09-13T17:19:49;16.60;99.90
49765;DHT22;35657;51.204;-4.130;2022-09-13T17:22:15;16.50;99.90
49765;DHT22;35657;51.204;-4.130;2022-09-13T17:24:41;16.60;99.90
49765;DHT22;35657;51.204;-4.130;2022-09-13T17:27:07;16.60;99.90
49765;DHT22;35657;51.204;-4.130;2022-09-13T17:29:33;16.50;99.90
49765;DHT22;35657;51.204;-4.130;2022-09-13T17:32:02;16.50;99.90
49765;DHT22;35657;51.204;-4.130;2022-09-13T17:34:28;16.50;99.90
49765;DHT22;35657;51.204;-4.130;2022-09-13T17:36:56;16.40;99.90
49765;DHT22;35657;51.204;-4.130;2022-09-13T17:39:22;16.40;99.90
49765;DHT22;35657;51.204;-4.130;2022-09-13T17:41:48;16.40;99.90
49765;DHT22;35657;51.204;-4.130;2022-09-13T17:44:14;16.40;99.90
49765;DHT22;35657;51.204;-4.130;2022-09-13T17:46:40;16.40;99.90
49765;DHT22;35657;51.204;-4.130;2022-09-13T17:49:06;16.40;99.90
49765;DHT22;35657;51.204;-4.130;2022-09-13T17:51:32;16.30;99.90
49765;DHT22;35657;51.204;-4.130;2022-09-13T17:54:01;16.30;99.90
49765;DHT22;35657;51.204;-4.130;2022-09-13T17:56:30;16.40;99.90
49765;DHT22;35657;51.204;-4.130;2022-09-13T17:59:20;16.30;99.90
49765;DHT22;35657;51.204;-4.130;2022-09-13T18:01:49;16.40;99.90
49765;DHT22;35657;51.204;-4.130;2022-09-13T18:04:16;16.30;99.90
49765;DHT22;35657;51.204;-4.130;2022-09-13T18:06:42;16.30;99.90
49765;DHT22;35657;51.204;-4.130;2022-09-13T18:09:10;16.30;99.90
49765;DHT22;35657;51.204;-4.130;2022-09-13T18:11:36;16.30;99.90
49765;DHT22;35657;51.204;-4.130;2022-09-13T18:14:02;16.30;99.90
49765;DHT22;35657;51.204;-4.130;2022-09-13T18:16:28;16.30;99.90
49765;DHT22;35657;51.204;-4.130;2022-09-13T18:18:55;16.30;99.90
49765;DHT22;35657;51.204;-4.130;2022-09-13T18:21:23;16.30;99.90
49765;DHT22;35657;51.204;-4.130;2022-09-13T18:23:51;16.30;99.90
49765;DHT22;35657;51.204;-4.130;2022-09-13T18:26:20;16.30;99.90
49765;DHT22;35657;51.204;-4.130;2022-09-13T18:28:46;16.30;99.90
49765;DHT22;35657;51.204;-4.130;2022-09-13T18:31:16;16.30;99.90
49765;DHT22;35657;51.204;-4.130;2022-09-13T18:33:43;16.30;99.90
49765;DHT22;35657;51.204;-4.130;2022-09-13T18:36:11;16.20;99.90
49765;DHT22;35657;51.204;-4.130;2022-09-13T18:38:40;16.20;99.90
49765;DHT22;35657;51.204;-4.130;2022-09-13T18:41:08;16.30;99.90
49765;DHT22;35657;51.204;-4.130;2022-09-13T18:43:35;16.30;99.90
49765;DHT22;35657;51.204;-4.130;2022-09-13T18:46:03;16.30;99.90
49765;DHT22;35657;51.204;-4.130;2022-09-13T18:48:31;16.30;99.90
49765;DHT22;35657;51.204;-4.130;2022-09-13T18:50:58;16.30;99.90
49765;DHT22;35657;51.204;-4.130;2022-09-13T18:53:24;16.30;99.90
49765;DHT22;35657;51.204;-4.130;2022-09-13T18:55:50;16.20;99.90
49765;DHT22;35657;51.204;-4.130;2022-09-13T18:58:19;16.20;99.90
49765;DHT22;35657;51.204;-4.130;2022-09-13T19:00:45;16.20;99.90
49765;DHT22;35657;51.204;-4.130;2022-09-13T19:03:10;16.20;99.90
49765;DHT22;35657;51.204;-4.130;2022-09-13T19:05:44;16.20;99.90
49765;DHT22;35657;51.204;-4.130;2022-09-13T19:08:10;16.20;99.90
49765;DHT22;35657;51.204;-4.130;2022-09-13T19:10:36;16.20;99.90